sensor_id;sensor_type;location;lat;lon;timestamp;P1;durP1;ratioP1;P2;durP2;ratioP2
62151;SDS011;48139;47.474;19.034;2023-05-03T03:39:13;12.32;;;7.22;;
62151;SDS011;48139;47.474;19.034;2023-05-03T03:42:19;12.32;;;6.60;;
62151;SDS011;48139;47.474;19.034;2023-05-03T03:45:23;12.45;;;7.20;;
62151;SDS011;48139;47.474;19.034;2023-05-03T03:48:26;12.82;;;7.68;;
62151;SDS011;48139;47.474;19.034;2023-05-03T03:51:29;11.60;;;7.22;;
62151;SDS011;48139;47.474;19.034;2023-05-03T03:57:38;9.93;;;6.45;;
62151;SDS011;48139;47.474;19.034;2023-05-03T04:00:41;14.13;;;7.05;;
62151;SDS011;48139;47.474;19.034;2023-05-03T04:03:45;10.15;;;5.50;;
62151;SDS011;48139;47.474;19.034;2023-05-03T04:06:49;9.77;;;5.90;;
62151;SDS011;48139;47.474;19.034;2023-05-03T04:09:52;10.07;;;5.50;;
62151;SDS011;48139;47.474;19.034;2023-05-03T04:12:54;9.68;;;6.62;;
62151;SDS011;48139;47.474;19.034;2023-05-03T04:15:57;9.30;;;5.62;;
62151;SDS011;48139;47.474;19.034;2023-05-03T04:19:00;8.90;;;6.20;;
62151;SDS011;48139;47.474;19.034;2023-05-03T04:22:04;12.13;;;6.53;;
62151;SDS011;48139;47.474;19.034;2023-05-03T04:25:09;7.80;;;5.47;;
62151;SDS011;48139;47.474;19.034;2023-05-03T04:28:15;9.98;;;6.60;;
62151;SDS011;48139;47.474;19.034;2023-05-03T04:31:18;10.20;;;6.03;;
62151;SDS011;48139;47.474;19.034;2023-05-03T04:34:23;9.38;;;5.70;;
62151;SDS011;48139;47.474;19.034;2023-05-03T04:40:29;9.38;;;5.70;;
62151;SDS011;48139;47.474;19.034;2023-05-03T04:46:36;10.50;;;6.25;;
62151;SDS011;48139;47.474;19.034;2023-05-03T04:49:39;10.25;;;6.05;;
62151;SDS011;48139;47.474;19.034;2023-05-03T04:52:41;9.63;;;5.70;;
62151;SDS011;48139;47.474;19.034;2023-05-03T04:55:44;9.52;;;5.53;;
62151;SDS011;48139;47.474;19.034;2023-05-03T04:58:49;9.20;;;6.32;;
62151;SDS011;48139;47.474;19.034;2023-05-03T05:01:52;8.32;;;5.07;;
62151;SDS011;48139;47.474;19.034;2023-05-03T05:04:55;7.82;;;5.43;;
62151;SDS011;48139;47.474;19.034;2023-05-03T05:11:03;8.75;;;4.87;;
62151;SDS011;48139;47.474;19.034;2023-05-03T05:17:09;10.23;;;5.10;;
62151;SDS011;48139;47.474;19.034;2023-05-03T05:20:12;8.73;;;5.67;;
62151;SDS011;48139;47.474;19.034;2023-05-03T05:23:16;8.48;;;5.90;;
62151;SDS011;48139;47.474;19.034;2023-05-03T05:26:20;8.93;;;5.93;;
62151;SDS011;48139;47.474;19.034;2023-05-03T05:29:23;8.45;;;5.65;;
62151;SDS011;48139;47.474;19.034;2023-05-03T05:32:26;7.82;;;4.53;;
62151;SDS011;48139;47.474;19.034;2023-05-03T05:35:29;7.80;;;4.97;;
62151;SDS011;48139;47.474;19.034;2023-05-03T05:38:33;7.35;;;5.10;;
62151;SDS011;48139;47.474;19.034;2023-05-03T05:44:39;11.25;;;5.68;;
62151;SDS011;48139;47.474;19.034;2023-05-03T05:47:42;11.12;;;6.10;;
62151;SDS011;48139;47.474;19.034;2023-05-03T05:50:46;8.75;;;4.85;;
62151;SDS011;48139;47.474;19.034;2023-05-03T05:53:50;9.02;;;4.90;;
62151;SDS011;48139;47.474;19.034;2023-05-03T05:56:53;8.48;;;4.57;;
62151;SDS011;48139;47.474;19.034;2023-05-03T05:59:56;8.70;;;4.68;;
62151;SDS011;48139;47.474;19.034;2023-05-03T06:02:59;8.65;;;4.80;;
62151;SDS011;48139;47.474;19.034;2023-05-03T06:06:02;8.43;;;5.57;;
62151;SDS011;48139;47.474;19.034;2023-05-03T06:09:05;7.50;;;4.50;;
62151;SDS011;48139;47.474;19.034;2023-05-03T06:12:26;8.15;;;5.32;;
62151;SDS011;48139;47.474;19.034;2023-05-03T06:15:28;7.17;;;4.83;;
62151;SDS011;48139;47.474;19.034;2023-05-03T06:18:32;7.37;;;4.82;;
62151;SDS011;48139;47.474;19.034;2023-05-03T06:21:34;7.73;;;5.30;;
62151;SDS011;48139;47.474;19.034;2023-05-03T06:24:37;7.28;;;4.85;;
62151;SDS011;48139;47.474;19.034;2023-05-03T06:27:40;7.47;;;5.17;;
62151;SDS011;48139;47.474;19.034;2023-05-03T06:30:47;7.15;;;4.95;;
62151;SDS011;48139;47.474;19.034;2023-05-03T06:33:50;7.72;;;4.18;;
62151;SDS011;48139;47.474;19.034;2023-05-03T06:36:53;7.25;;;4.18;;
62151;SDS011;48139;47.474;19.034;2023-05-03T06:39:57;7.50;;;4.45;;
62151;SDS011;48139;47.474;19.034;2023-05-03T06:43:00;6.37;;;4.28;;
62151;SDS011;48139;47.474;19.034;2023-05-03T06:46:05;8.75;;;3.90;;
62151;SDS011;48139;47.474;19.034;2023-05-03T06:49:09;8.50;;;4.78;;
62151;SDS011;48139;47.474;19.034;2023-05-03T06:52:11;10.52;;;5.45;;
62151;SDS011;48139;47.474;19.034;2023-05-03T06:55:14;7.68;;;4.97;;
62151;SDS011;48139;47.474;19.034;2023-05-03T06:58:17;6.55;;;4.22;;
62151;SDS011;48139;47.474;19.034;2023-05-03T07:01:19;8.07;;;3.75;;
62151;SDS011;48139;47.474;19.034;2023-05-03T07:04:22;8.55;;;4.20;;
62151;SDS011;48139;47.474;19.034;2023-05-03T07:07:25;8.68;;;5.18;;
62151;SDS011;48139;47.474;19.034;2023-05-03T07:10:29;9.32;;;5.65;;
62151;SDS011;48139;47.474;19.034;2023-05-03T07:13:33;7.75;;;5.75;;
62151;SDS011;48139;47.474;19.034;2023-05-03T07:16:35;7.35;;;4.50;;
62151;SDS011;48139;47.474;19.034;2023-05-03T07:19:38;9.50;;;6.03;;
62151;SDS011;48139;47.474;19.034;2023-05-03T07:22:40;8.35;;;5.62;;
62151;SDS011;48139;47.474;19.034;2023-05-03T07:25:44;7.62;;;5.07;;
62151;SDS011;48139;47.474;19.034;2023-05-03T07:28:47;8.23;;;5.50;;
62151;SDS011;48139;47.474;19.034;2023-05-03T07:31:49;8.57;;;4.47;;
62151;SDS011;48139;47.474;19.034;2023-05-03T07:34:56;9.63;;;5.20;;
62151;SDS011;48139;47.474;19.034;2023-05-03T07:37:59;7.32;;;4.55;;
62151;SDS011;48139;47.474;19.034;2023-05-03T07:41:01;7.27;;;4.37;;
62151;SDS011;48139;47.474;19.034;2023-05-03T07:47:07;6.03;;;3.75;;
62151;SDS011;48139;47.474;19.034;2023-05-03T07:50:09;6.70;;;4.57;;
62151;SDS011;48139;47.474;19.034;2023-05-03T07:53:13;6.32;;;3.87;;
62151;SDS011;48139;47.474;19.034;2023-05-03T07:56:16;7.75;;;4.50;;
62151;SDS011;48139;47.474;19.034;2023-05-03T07:59:18;8.67;;;3.83;;
62151;SDS011;48139;47.474;19.034;2023-05-03T08:02:21;13.35;;;4.45;;
62151;SDS011;48139;47.474;19.034;2023-05-03T08:05:24;7.65;;;4.35;;
62151;SDS011;48139;47.474;19.034;2023-05-03T08:08:26;7.80;;;4.93;;
62151;SDS011;48139;47.474;19.034;2023-05-03T08:11:29;7.20;;;4.97;;
62151;SDS011;48139;47.474;19.034;2023-05-03T08:14:32;6.62;;;4.00;;
62151;SDS011;48139;47.474;19.034;2023-05-03T08:17:39;10.20;;;3.95;;
62151;SDS011;48139;47.474;19.034;2023-05-03T08:20:47;7.85;;;4.65;;
62151;SDS011;48139;47.474;19.034;2023-05-03T08:23:50;6.95;;;4.28;;
62151;SDS011;48139;47.474;19.034;2023-05-03T08:26:53;8.35;;;5.00;;
62151;SDS011;48139;47.474;19.034;2023-05-03T08:29:56;5.53;;;3.55;;
62151;SDS011;48139;47.474;19.034;2023-05-03T08:32:59;6.82;;;4.82;;
62151;SDS011;48139;47.474;19.034;2023-05-03T08:36:02;7.90;;;4.60;;
62151;SDS011;48139;47.474;19.034;2023-05-03T08:39:04;6.80;;;4.32;;
62151;SDS011;48139;47.474;19.034;2023-05-03T08:42:08;7.95;;;5.15;;
62151;SDS011;48139;47.474;19.034;2023-05-03T08:45:18;11.65;;;6.18;;
62151;SDS011;48139;47.474;19.034;2023-05-03T08:48:21;9.02;;;5.15;;
62151;SDS011;48139;47.474;19.034;2023-05-03T08:51:23;11.98;;;4.90;;
62151;SDS011;48139;47.474;19.034;2023-05-03T08:54:26;8.02;;;5.25;;
62151;SDS011;48139;47.474;19.034;2023-05-03T08:57:29;15.27;;;5.35;;
62151;SDS011;48139;47.474;19.034;2023-05-03T09:00:32;7.55;;;4.47;;
62151;SDS011;48139;47.474;19.034;2023-05-03T09:03:35;7.35;;;4.75;;
62151;SDS011;48139;47.474;19.034;2023-05-03T09:06:38;8.35;;;5.65;;
62151;SDS011;48139;47.474;19.034;2023-05-03T09:09:41;7.40;;;5.07;;
62151;SDS011;48139;47.474;19.034;2023-05-03T09:12:48;8.02;;;5.45;;
62151;SDS011;48139;47.474;19.034;2023-05-03T09:15:54;10.82;;;5.30;;
62151;SDS011;48139;47.474;19.034;2023-05-03T09:19:08;7.72;;;5.18;;
62151;SDS011;48139;47.474;19.034;2023-05-03T09:22:13;10.02;;;7.37;;
62151;SDS011;48139;47.474;19.034;2023-05-03T09:25:21;9.05;;;5.60;;
62151;SDS011;48139;47.474;19.034;2023-05-03T09:28:24;10.50;;;5.37;;
62151;SDS011;48139;47.474;19.034;2023-05-03T09:31:32;8.55;;;5.50;;
62151;SDS011;48139;47.474;19.034;2023-05-03T09:34:35;7.55;;;5.35;;
62151;SDS011;48139;47.474;19.034;2023-05-03T09:40:47;9.80;;;6.12;;
62151;SDS011;48139;47.474;19.034;2023-05-03T09:43:51;7.95;;;5.28;;
62151;SDS011;48139;47.474;19.034;2023-05-03T09:47:03;11.12;;;4.68;;
62151;SDS011;48139;47.474;19.034;2023-05-03T09:50:07;8.73;;;5.30;;
62151;SDS011;48139;47.474;19.034;2023-05-03T09:53:10;9.57;;;5.72;;
62151;SDS011;48139;47.474;19.034;2023-05-03T09:56:12;9.85;;;5.07;;
62151;SDS011;48139;47.474;19.034;2023-05-03T09:59:16;7.68;;;4.68;;
62151;SDS011;48139;47.474;19.034;2023-05-03T10:02:19;6.57;;;4.10;;
62151;SDS011;48139;47.474;19.034;2023-05-03T10:05:23;10.02;;;4.60;;
62151;SDS011;48139;47.474;19.034;2023-05-03T10:11:42;7.53;;;4.68;;
62151;SDS011;48139;47.474;19.034;2023-05-03T10:14:51;8.05;;;4.75;;
62151;SDS011;48139;47.474;19.034;2023-05-03T10:17:56;7.82;;;5.18;;
62151;SDS011;48139;47.474;19.034;2023-05-03T10:21:03;7.72;;;4.82;;
62151;SDS011;48139;47.474;19.034;2023-05-03T10:24:11;6.85;;;4.65;;
62151;SDS011;48139;47.474;19.034;2023-05-03T10:27:15;8.57;;;4.80;;
62151;SDS011;48139;47.474;19.034;2023-05-03T10:30:27;7.25;;;4.75;;
62151;SDS011;48139;47.474;19.034;2023-05-03T10:33:37;6.93;;;4.53;;
62151;SDS011;48139;47.474;19.034;2023-05-03T10:36:41;6.35;;;4.25;;
62151;SDS011;48139;47.474;19.034;2023-05-03T10:39:51;7.00;;;4.28;;
62151;SDS011;48139;47.474;19.034;2023-05-03T10:42:54;15.13;;;4.70;;
62151;SDS011;48139;47.474;19.034;2023-05-03T10:46:01;9.65;;;4.62;;
62151;SDS011;48139;47.474;19.034;2023-05-03T10:49:24;8.55;;;5.18;;
62151;SDS011;48139;47.474;19.034;2023-05-03T10:55:36;9.50;;;5.25;;
62151;SDS011;48139;47.474;19.034;2023-05-03T10:58:41;9.10;;;5.22;;
62151;SDS011;48139;47.474;19.034;2023-05-03T11:01:45;6.85;;;4.55;;
62151;SDS011;48139;47.474;19.034;2023-05-03T11:04:50;8.00;;;4.80;;
62151;SDS011;48139;47.474;19.034;2023-05-03T11:08:06;9.38;;;4.68;;
62151;SDS011;48139;47.474;19.034;2023-05-03T11:11:14;10.20;;;5.90;;
62151;SDS011;48139;47.474;19.034;2023-05-03T11:14:17;12.27;;;5.55;;
62151;SDS011;48139;47.474;19.034;2023-05-03T11:17:19;10.23;;;5.45;;
62151;SDS011;48139;47.474;19.034;2023-05-03T11:20:22;7.62;;;4.43;;
62151;SDS011;48139;47.474;19.034;2023-05-03T11:23:26;12.57;;;6.35;;
62151;SDS011;48139;47.474;19.034;2023-05-03T11:26:35;12.85;;;4.45;;
62151;SDS011;48139;47.474;19.034;2023-05-03T11:29:39;8.30;;;5.25;;
62151;SDS011;48139;47.474;19.034;2023-05-03T11:32:42;9.00;;;4.87;;
62151;SDS011;48139;47.474;19.034;2023-05-03T11:35:45;8.30;;;4.93;;
62151;SDS011;48139;47.474;19.034;2023-05-03T11:38:48;8.10;;;5.07;;
62151;SDS011;48139;47.474;19.034;2023-05-03T11:41:59;11.75;;;4.60;;
62151;SDS011;48139;47.474;19.034;2023-05-03T11:45:04;7.18;;;4.82;;
62151;SDS011;48139;47.474;19.034;2023-05-03T11:48:07;8.13;;;4.75;;
62151;SDS011;48139;47.474;19.034;2023-05-03T11:51:10;11.98;;;5.70;;
62151;SDS011;48139;47.474;19.034;2023-05-03T11:54:13;7.72;;;4.07;;
62151;SDS011;48139;47.474;19.034;2023-05-03T11:57:24;6.25;;;4.30;;
62151;SDS011;48139;47.474;19.034;2023-05-03T12:00:27;8.80;;;6.30;;
62151;SDS011;48139;47.474;19.034;2023-05-03T12:03:31;7.00;;;4.62;;
62151;SDS011;48139;47.474;19.034;2023-05-03T12:06:35;10.57;;;4.50;;
62151;SDS011;48139;47.474;19.034;2023-05-03T12:09:40;7.37;;;4.55;;
62151;SDS011;48139;47.474;19.034;2023-05-03T12:15:58;8.48;;;4.70;;
62151;SDS011;48139;47.474;19.034;2023-05-03T12:19:27;8.52;;;5.43;;
62151;SDS011;48139;47.474;19.034;2023-05-03T12:22:34;7.12;;;4.28;;
62151;SDS011;48139;47.474;19.034;2023-05-03T12:28:45;7.22;;;4.05;;
62151;SDS011;48139;47.474;19.034;2023-05-03T12:31:49;7.82;;;4.97;;
62151;SDS011;48139;47.474;19.034;2023-05-03T12:34:54;6.32;;;4.03;;
62151;SDS011;48139;47.474;19.034;2023-05-03T12:37:58;6.85;;;4.32;;
62151;SDS011;48139;47.474;19.034;2023-05-03T12:41:04;7.43;;;4.28;;
62151;SDS011;48139;47.474;19.034;2023-05-03T12:44:10;6.05;;;3.75;;
62151;SDS011;48139;47.474;19.034;2023-05-03T12:47:18;6.32;;;3.80;;
62151;SDS011;48139;47.474;19.034;2023-05-03T12:50:31;9.55;;;3.78;;
62151;SDS011;48139;47.474;19.034;2023-05-03T12:53:38;9.25;;;4.80;;
62151;SDS011;48139;47.474;19.034;2023-05-03T12:56:41;7.20;;;4.45;;
62151;SDS011;48139;47.474;19.034;2023-05-03T12:59:49;7.95;;;4.37;;
62151;SDS011;48139;47.474;19.034;2023-05-03T13:06:09;6.60;;;4.18;;
62151;SDS011;48139;47.474;19.034;2023-05-03T13:09:15;7.68;;;4.20;;
62151;SDS011;48139;47.474;19.034;2023-05-03T13:12:23;5.78;;;4.30;;
62151;SDS011;48139;47.474;19.034;2023-05-03T13:15:30;8.07;;;4.05;;
62151;SDS011;48139;47.474;19.034;2023-05-03T13:18:33;7.62;;;5.20;;
62151;SDS011;48139;47.474;19.034;2023-05-03T13:21:35;7.07;;;4.25;;
62151;SDS011;48139;47.474;19.034;2023-05-03T13:24:39;7.62;;;4.10;;
62151;SDS011;48139;47.474;19.034;2023-05-03T13:27:42;7.95;;;6.32;;
62151;SDS011;48139;47.474;19.034;2023-05-03T13:30:46;5.97;;;3.72;;
62151;SDS011;48139;47.474;19.034;2023-05-03T13:33:50;6.45;;;4.28;;
62151;SDS011;48139;47.474;19.034;2023-05-03T13:36:57;8.15;;;4.22;;
62151;SDS011;48139;47.474;19.034;2023-05-03T13:39:59;7.53;;;4.40;;
62151;SDS011;48139;47.474;19.034;2023-05-03T13:43:03;7.12;;;4.53;;
62151;SDS011;48139;47.474;19.034;2023-05-03T13:46:06;7.22;;;3.65;;
62151;SDS011;48139;47.474;19.034;2023-05-03T13:52:11;6.87;;;4.82;;
62151;SDS011;48139;47.474;19.034;2023-05-03T13:55:14;7.37;;;4.20;;
62151;SDS011;48139;47.474;19.034;2023-05-03T13:58:16;5.95;;;3.50;;
62151;SDS011;48139;47.474;19.034;2023-05-03T14:01:19;6.32;;;4.10;;
62151;SDS011;48139;47.474;19.034;2023-05-03T14:04:22;7.18;;;3.45;;
62151;SDS011;48139;47.474;19.034;2023-05-03T14:07:26;6.50;;;4.22;;
62151;SDS011;48139;47.474;19.034;2023-05-03T14:10:33;7.80;;;4.18;;
62151;SDS011;48139;47.474;19.034;2023-05-03T14:13:36;6.70;;;3.80;;
62151;SDS011;48139;47.474;19.034;2023-05-03T14:16:56;5.87;;;3.22;;
62151;SDS011;48139;47.474;19.034;2023-05-03T14:19:59;9.98;;;3.85;;
62151;SDS011;48139;47.474;19.034;2023-05-03T14:23:02;6.12;;;3.75;;
62151;SDS011;48139;47.474;19.034;2023-05-03T14:26:05;6.55;;;4.12;;
62151;SDS011;48139;47.474;19.034;2023-05-03T14:29:09;5.75;;;3.83;;
62151;SDS011;48139;47.474;19.034;2023-05-03T14:32:11;4.95;;;3.40;;
62151;SDS011;48139;47.474;19.034;2023-05-03T14:35:14;6.55;;;3.85;;
62151;SDS011;48139;47.474;19.034;2023-05-03T14:38:20;6.97;;;3.70;;
62151;SDS011;48139;47.474;19.034;2023-05-03T14:41:24;5.80;;;3.33;;
62151;SDS011;48139;47.474;19.034;2023-05-03T14:44:27;8.98;;;4.30;;
62151;SDS011;48139;47.474;19.034;2023-05-03T14:47:30;7.60;;;4.05;;
62151;SDS011;48139;47.474;19.034;2023-05-03T14:53:36;7.60;;;3.72;;
62151;SDS011;48139;47.474;19.034;2023-05-03T14:56:38;5.40;;;3.42;;
62151;SDS011;48139;47.474;19.034;2023-05-03T14:59:41;6.00;;;3.12;;
62151;SDS011;48139;47.474;19.034;2023-05-03T15:02:44;5.35;;;3.08;;
62151;SDS011;48139;47.474;19.034;2023-05-03T15:05:48;6.93;;;3.90;;
62151;SDS011;48139;47.474;19.034;2023-05-03T15:08:51;6.25;;;3.53;;
62151;SDS011;48139;47.474;19.034;2023-05-03T15:11:54;4.95;;;3.00;;
62151;SDS011;48139;47.474;19.034;2023-05-03T15:14:57;5.82;;;3.28;;
62151;SDS011;48139;47.474;19.034;2023-05-03T15:18:00;6.40;;;3.70;;
62151;SDS011;48139;47.474;19.034;2023-05-03T15:21:04;5.72;;;3.30;;
62151;SDS011;48139;47.474;19.034;2023-05-03T15:24:08;5.87;;;3.30;;
62151;SDS011;48139;47.474;19.034;2023-05-03T15:27:11;5.57;;;3.03;;
62151;SDS011;48139;47.474;19.034;2023-05-03T15:30:14;5.93;;;4.00;;
62151;SDS011;48139;47.474;19.034;2023-05-03T15:33:18;6.12;;;3.37;;
62151;SDS011;48139;47.474;19.034;2023-05-03T15:36:21;6.30;;;2.97;;
62151;SDS011;48139;47.474;19.034;2023-05-03T15:39:23;6.17;;;3.93;;
62151;SDS011;48139;47.474;19.034;2023-05-03T15:42:26;6.30;;;3.55;;
62151;SDS011;48139;47.474;19.034;2023-05-03T15:45:29;6.87;;;3.72;;
62151;SDS011;48139;47.474;19.034;2023-05-03T15:51:34;5.12;;;3.17;;
